Time,TemperatureF,DewpointF,PressureIn,WindDirection,WindDirectionDegrees,WindSpeedMPH,WindSpeedGustMPH,Humidity,HourlyPrecipIn,Conditions,Clouds,dailyrainin,SoftwareType,DateUTC
2013-01-30 00:00:00,69.3,63.2,29.73,SE,131,8.0,-999.0,81,0.00,,,0.00,Haskell-WGSend-v0.01,2013-01-30 06:00:00,
2013-01-30 00:05:00,69.4,63.3,29.72,SSE,153,9.0,-999.0,81,0.00,,,0.00,Haskell-WGSend-v0.01,2013-01-30 06:05:00,
2013-01-30 00:10:00,69.4,63.3,29.72,South,184,3.0,-999.0,81,0.00,,,0.00,Haskell-WGSend-v0.01,2013-01-30 06:10:00,
2013-01-30 00:15:00,69.4,63.3,29.72,South,180,3.0,-999.0,81,0.00,,,0.00,Haskell-WGSend-v0.01,2013-01-30 06:15:00,
2013-01-30 00:20:00,69.4,63.3,29.73,ESE,117,14.0,-999.0,81,0.00,,,0.00,Haskell-WGSend-v0.01,2013-01-30 06:20:00,
2013-01-30 00:25:00,69.5,63.4,29.73,South,182,13.0,-999.0,81,0.00,,,0.00,Haskell-WGSend-v0.01,2013-01-30 06:25:00,
2013-01-30 00:30:00,69.5,63.4,29.73,SE,141,1.0,-999.0,81,0.00,,,0.00,Haskell-WGSend-v0.01,2013-01-30 06:30:00,
2013-01-30 00:35:00,69.5,63.4,29.73,ESE,108,7.0,-999.0,81,0.00,,,0.00,Haskell-WGSend-v0.01,2013-01-30 06:35:00,
2013-01-30 00:40:00,69.5,63.4,29.73,WSW,237,16.0,-999.0,81,0.00,,,0.00,Haskell-WGSend-v0.01,2013-01-30 06:40:00,
2013-01-30 00:45:00,69.5,63.4,29.73,SW,228,8.0,-999.0,81,0.00,,,0.00,Haskell-WGSend-v0.01,2013-01-30 06:45:00,
2013-01-30 00:50:00,69.5,63.4,29.72,South,191,5.0,-999.0,81,0.00,,,0.00,Haskell-WGSend-v0.01,2013-01-30 06:50:00,
2013-01-30 00:55:00,69.5,63.4,29.71,SSW,197,6.0,-999.0,81,0.00,,,0.00,Haskell-WGSend-v0.01,2013-01-30 06:55:00,
2013-01-30 01:00:00,69.5,63.4,29.71,South,189,6.0,-999.0,81,0.00,,,0.00,Haskell-WGSend-v0.01,2013-01-30 07:00:00,
2013-01-30 01:05:00,69.5,63.4,29.70,ESE,123,9.0,-999.0,81,0.00,,,0.00,Haskell-WGSend-v0.01,2013-01-30 07:05:00,
2013-01-30 01:10:00,69.5,63.4,29.70,SSE,155,5.0,-999.0,81,0.00,,,0.00,Haskell-WGSend-v0.01,2013-01-30 07:10:00,
2013-01-30 01:15:00,69.4,63.3,29.69,SSE,162,10.0,-999.0,81,0.00,,,0.00,Haskell-WGSend-v0.01,2013-01-30 07:15:00,
2013-01-30 01:20:00,69.4,63.3,29.69,SSW,202,12.0,-999.0,81,0.00,,,0.00,Haskell-WGSend-v0.01,2013-01-30 07:20:00,
2013-01-30 01:25:00,69.4,63.3,29.68,SE,131,6.0,-999.0,81,0.00,,,0.00,Haskell-WGSend-v0.01,2013-01-30 07:25:00,
2013-01-30 01:30:00,69.4,63.3,29.68,South,169,8.0,-999.0,81,0.00,,,0.00,Haskell-WGSend-v0.01,2013-01-30 07:30:00,
2013-01-30 01:35:00,69.5,63.4,29.69,SW,222,9.0,-999.0,81,0.00,,,0.00,Haskell-WGSend-v0.01,2013-01-30 07:35:00,
2013-01-30 01:40:00,69.4,63.3,29.69,SSW,194,6.0,-999.0,81,0.00,,,0.00,Haskell-WGSend-v0.01,2013-01-30 07:40:00,
2013-01-30 01:45:00,69.5,63.4,29.69,South,188,9.0,-999.0,81,0.00,,,0.00,Haskell-WGSend-v0.01,2013-01-30 07:45:00,
2013-01-30 01:50:00,69.6,63.9,29.68,South,182,4.0,-999.0,82,0.00,,,0.00,Haskell-WGSend-v0.01,2013-01-30 07:50:00,
2013-01-30 01:55:00,69.6,63.9,29.68,SSW,211,5.0,-999.0,82,0.00,,,0.00,Haskell-WGSend-v0.01,2013-01-30 07:55:00,
2013-01-30 02:00:00,69.6,63.9,29.68,South,190,2.0,-999.0,82,0.00,,,0.00,Haskell-WGSend-v0.01,2013-01-30 08:00:00,
2013-01-30 02:05:00,69.6,63.5,29.68,SSE,156,6.0,-999.0,81,0.00,,,0.00,Haskell-WGSend-v0.01,2013-01-30 08:05:00,
2013-01-30 02:10:00,69.6,63.9,29.68,SW,226,17.0,-999.0,82,0.00,,,0.00,Haskell-WGSend-v0.01,2013-01-30 08:10:00,
2013-01-30 02:15:00,69.7,64.0,29.68,SE,126,13.0,-999.0,82,0.00,,,0.00,Haskell-WGSend-v0.01,2013-01-30 08:15:00,
2013-01-30 02:25:00,69.9,63.8,29.67,SSW,204,14.0,-999.0,81,0.00,,,0.00,Haskell-WGSend-v0.01,2013-01-30 08:25:00,
2013-01-30 02:30:00,70.0,63.9,29.68,South,190,5.0,-999.0,81,0.00,,,0.00,Haskell-WGSend-v0.01,2013-01-30 08:30:00,
2013-01-30 02:35:00,70.1,64.0,29.67,South,186,4.0,-999.0,81,0.00,,,0.00,Haskell-WGSend-v0.01,2013-01-30 08:35:00,
2013-01-30 02:40:00,70.2,64.1,29.67,South,184,2.0,-999.0,81,0.00,,,0.00,Haskell-WGSend-v0.01,2013-01-30 08:40:00,
2013-01-30 02:45:00,70.2,64.1,29.67,SSW,211,13.0,-999.0,81,0.00,,,0.00,Haskell-WGSend-v0.01,2013-01-30 08:45:00,
2013-01-30 02:50:00,70.3,63.8,29.65,ENE,77,10.0,-999.0,80,0.00,,,0.00,Haskell-WGSend-v0.01,2013-01-30 08:50:00,
2013-01-30 02:55:00,70.3,63.8,29.64,South,188,4.0,-999.0,80,0.00,,,0.00,Haskell-WGSend-v0.01,2013-01-30 08:55:00,
2013-01-30 03:00:00,70.3,63.8,29.64,SSW,211,9.0,-999.0,80,0.00,,,0.00,Haskell-WGSend-v0.01,2013-01-30 09:00:00,
2013-01-30 03:05:00,70.3,63.8,29.64,South,184,12.0,-999.0,80,0.00,,,0.00,Haskell-WGSend-v0.01,2013-01-30 09:05:00,
2013-01-30 03:10:00,70.3,63.8,29.64,South,183,4.0,-999.0,80,0.00,,,0.00,Haskell-WGSend-v0.01,2013-01-30 09:10:00,
2013-01-30 03:15:00,70.4,63.9,29.63,SSW,198,9.0,-999.0,80,0.00,,,0.00,Haskell-WGSend-v0.01,2013-01-30 09:15:00,
2013-01-30 03:20:00,70.4,63.9,29.63,SSE,153,9.0,-999.0,80,0.00,,,0.00,Haskell-WGSend-v0.01,2013-01-30 09:20:00,
2013-01-30 03:25:00,70.4,63.9,29.62,SSE,159,6.0,-999.0,80,0.00,,,0.00,Haskell-WGSend-v0.01,2013-01-30 09:25:00,
2013-01-30 03:30:00,70.5,64.0,29.63,SSW,208,7.0,-999.0,80,0.00,,,0.00,Haskell-WGSend-v0.01,2013-01-30 09:30:00,
2013-01-30 03:35:00,70.5,64.0,29.63,SW,228,10.0,-999.0,80,0.00,,,0.00,Haskell-WGSend-v0.01,2013-01-30 09:35:00,
2013-01-30 03:40:00,70.5,64.0,29.63,South,182,6.0,-999.0,80,0.00,,,0.00,Haskell-WGSend-v0.01,2013-01-30 09:40:00,
2013-01-30 03:45:00,70.5,64.0,29.62,SSW,194,4.0,-999.0,80,0.00,,,0.00,Haskell-WGSend-v0.01,2013-01-30 09:45:00,
2013-01-30 03:50:00,70.6,64.1,29.62,SE,131,8.0,-999.0,80,0.00,,,0.00,Haskell-WGSend-v0.01,2013-01-30 09:50:00,
2013-01-30 03:55:00,70.6,64.1,29.62,South,169,8.0,-999.0,80,0.00,,,0.00,Haskell-WGSend-v0.01,2013-01-30 09:55:00,
2013-01-30 04:00:00,70.7,64.2,29.62,SSW,199,18.0,-999.0,80,0.00,,,0.00,Haskell-WGSend-v0.01,2013-01-30 10:00:00,
2013-01-30 04:10:00,70.8,64.3,29.61,SSW,196,12.0,-999.0,80,0.00,,,0.00,Haskell-WGSend-v0.01,2013-01-30 10:10:00,
2013-01-30 04:15:00,70.8,64.3,29.61,SSW,196,8.0,-999.0,80,0.00,,,0.00,Haskell-WGSend-v0.01,2013-01-30 10:15:00,
2013-01-30 04:20:00,70.7,64.2,29.61,SW,221,10.0,-999.0,80,0.00,,,0.00,Haskell-WGSend-v0.01,2013-01-30 10:20:00,
2013-01-30 04:30:00,70.9,64.4,29.60,SSW,209,4.0,-999.0,80,0.00,,,0.00,Haskell-WGSend-v0.01,2013-01-30 10:30:00,
2013-01-30 04:40:00,70.8,64.3,29.59,SW,214,11.0,-999.0,80,0.00,,,0.00,Haskell-WGSend-v0.01,2013-01-30 10:40:00,
2013-01-30 04:45:00,70.9,64.4,29.59,South,182,12.0,-999.0,80,0.00,,,0.00,Haskell-WGSend-v0.01,2013-01-30 10:45:00,
2013-01-30 04:50:00,70.9,64.4,29.59,SSW,197,5.0,-999.0,80,0.00,,,0.00,Haskell-WGSend-v0.01,2013-01-30 10:50:00,
2013-01-30 05:00:00,71.1,64.6,29.59,SW,222,3.0,-999.0,80,0.00,,,0.00,Haskell-WGSend-v0.01,2013-01-30 11:00:00,
2013-01-30 05:05:00,71.0,64.5,29.59,SSE,164,4.0,-999.0,80,0.00,,,0.00,Haskell-WGSend-v0.01,2013-01-30 11:05:00,
2013-01-30 05:10:00,70.7,64.6,29.59,SSW,197,7.0,-999.0,81,0.00,,,0.00,Haskell-WGSend-v0.01,2013-01-30 11:10:00,
2013-01-30 05:15:00,70.4,64.6,29.59,South,186,8.0,-999.0,82,0.00,,,0.00,Haskell-WGSend-v0.01,2013-01-30 11:15:00,
2013-01-30 05:20:00,70.1,64.7,29.59,SSW,211,9.0,-999.0,83,0.00,,,0.00,Haskell-WGSend-v0.01,2013-01-30 11:20:00,
2013-01-30 05:25:00,69.7,64.6,29.59,SSW,208,5.0,-999.0,84,0.00,,,0.00,Haskell-WGSend-v0.01,2013-01-30 11:25:00,
2013-01-30 05:30:00,69.4,64.7,29.59,West,259,8.0,-999.0,85,0.00,,,0.00,Haskell-WGSend-v0.01,2013-01-30 11:30:00,
2013-01-30 05:35:00,69.2,64.5,29.59,South,183,8.0,-999.0,85,0.00,,,0.00,Haskell-WGSend-v0.01,2013-01-30 11:35:00,
2013-01-30 05:40:00,69.0,64.3,29.60,West,274,5.0,-999.0,85,0.00,,,0.00,Haskell-WGSend-v0.01,2013-01-30 11:40:00,
2013-01-30 05:50:00,64.1,56.4,29.59,NNW,330,12.0,-999.0,76,0.00,,,0.00,Haskell-WGSend-v0.01,2013-01-30 11:50:00,
2013-01-30 05:55:00,62.1,55.9,29.61,NW,315,7.0,-999.0,80,0.00,,,0.01,Haskell-WGSend-v0.01,2013-01-30 11:55:00,
2013-01-30 06:00:00,60.5,54.3,29.58,West,260,12.0,-999.0,80,0.00,,,0.01,Haskell-WGSend-v0.01,2013-01-30 12:00:00,
2013-01-30 06:05:00,58.8,54.0,29.65,NNW,348,9.0,-999.0,84,0.73,,,0.13,Haskell-WGSend-v0.01,2013-01-30 12:05:00,
2013-01-30 06:15:00,56.6,53.1,29.64,WNW,302,5.0,-999.0,88,0.30,,,0.23,Haskell-WGSend-v0.01,2013-01-30 12:15:00,
2013-01-30 06:20:00,56.1,53.2,29.65,WNW,298,5.0,-999.0,90,0.09,,,0.23,Haskell-WGSend-v0.01,2013-01-30 12:20:00,
2013-01-30 06:25:00,55.9,53.3,29.66,WNW,300,5.0,-999.0,91,0.51,,,0.30,Haskell-WGSend-v0.01,2013-01-30 12:25:00,
2013-01-30 06:35:00,55.5,52.9,29.65,NW,320,5.0,-999.0,91,0.13,,,0.35,Haskell-WGSend-v0.01,2013-01-30 12:35:00,
2013-01-30 06:45:00,55.4,53.1,29.64,NNW,341,4.0,-999.0,92,0.26,,,0.39,Haskell-WGSend-v0.01,2013-01-30 12:45:00,
2013-01-30 06:50:00,55.3,53.0,29.64,NNW,339,0.0,-999.0,92,0.08,,,0.39,Haskell-WGSend-v0.01,2013-01-30 12:50:00,
2013-01-30 06:55:00,55.3,53.0,29.65,WNW,296,4.0,-999.0,92,0.05,,,0.39,Haskell-WGSend-v0.01,2013-01-30 12:55:00,
2013-01-30 07:00:00,55.3,53.0,29.64,WNW,296,0.0,-999.0,92,0.04,,,0.40,Haskell-WGSend-v0.01,2013-01-30 13:00:00,
2013-01-30 07:05:00,55.3,53.0,29.65,WNW,296,0.0,-999.0,92,0.17,,,0.41,Haskell-WGSend-v0.01,2013-01-30 13:05:00,
2013-01-30 07:10:00,55.3,53.0,29.64,WNW,296,0.0,-999.0,92,0.07,,,0.41,Haskell-WGSend-v0.01,2013-01-30 13:10:00,
2013-01-30 07:15:00,55.3,53.3,29.64,WNW,296,0.0,-999.0,93,0.04,,,0.41,Haskell-WGSend-v0.01,2013-01-30 13:15:00,
2013-01-30 07:20:00,55.3,53.3,29.63,WNW,296,0.0,-999.0,93,0.00,,,0.41,Haskell-WGSend-v0.01,2013-01-30 13:20:00,
2013-01-30 07:25:00,55.3,53.3,29.63,WNW,296,0.0,-999.0,93,0.00,,,0.41,Haskell-WGSend-v0.01,2013-01-30 13:25:00,
2013-01-30 07:30:00,55.3,53.3,29.63,WNW,296,0.0,-999.0,93,0.00,,,0.42,Haskell-WGSend-v0.01,2013-01-30 13:30:00,
2013-01-30 07:35:00,55.3,53.3,29.64,WNW,296,0.0,-999.0,93,0.00,,,0.42,Haskell-WGSend-v0.01,2013-01-30 13:35:00,
2013-01-30 07:40:00,55.3,53.3,29.63,WNW,296,0.0,-999.0,93,0.05,,,0.43,Haskell-WGSend-v0.01,2013-01-30 13:40:00,
2013-01-30 07:50:00,55.3,53.3,29.63,WNW,296,0.0,-999.0,93,0.27,,,0.46,Haskell-WGSend-v0.01,2013-01-30 13:50:00,
2013-01-30 07:55:00,55.3,53.3,29.64,WNW,293,0.0,-999.0,93,0.40,,,0.49,Haskell-WGSend-v0.01,2013-01-30 13:55:00,
2013-01-30 08:00:00,55.3,53.3,29.64,WNW,293,0.0,-999.0,93,0.28,,,0.51,Haskell-WGSend-v0.01,2013-01-30 14:00:00,
2013-01-30 08:05:00,55.4,53.7,29.64,WNW,293,0.0,-999.0,94,0.31,,,0.53,Haskell-WGSend-v0.01,2013-01-30 14:05:00,
2013-01-30 08:10:00,55.4,53.7,29.64,WNW,293,0.0,-999.0,94,0.40,,,0.54,Haskell-WGSend-v0.01,2013-01-30 14:10:00,
2013-01-30 08:15:00,55.3,53.6,29.62,WNW,293,0.0,-999.0,94,0.28,,,0.57,Haskell-WGSend-v0.01,2013-01-30 14:15:00,
2013-01-30 08:20:00,55.3,53.6,29.62,WNW,293,0.0,-999.0,94,0.29,,,0.59,Haskell-WGSend-v0.01,2013-01-30 14:20:00,
2013-01-30 08:25:00,55.2,53.2,29.62,WNW,293,0.0,-999.0,93,0.10,,,0.59,Haskell-WGSend-v0.01,2013-01-30 14:25:00,
2013-01-30 08:30:00,55.2,53.2,29.63,WNW,293,0.0,-999.0,93,0.21,,,0.61,Haskell-WGSend-v0.01,2013-01-30 14:30:00,
2013-01-30 08:35:00,55.1,53.1,29.62,WNW,293,2.0,-999.0,93,0.13,,,0.62,Haskell-WGSend-v0.01,2013-01-30 14:35:00,
2013-01-30 08:40:00,55.1,53.1,29.62,WNW,293,0.0,-999.0,93,0.16,,,0.63,Haskell-WGSend-v0.01,2013-01-30 14:40:00,
2013-01-30 08:45:00,55.0,53.0,29.62,WSW,238,2.0,-999.0,93,0.29,,,0.65,Haskell-WGSend-v0.01,2013-01-30 14:45:00,
2013-01-30 08:50:00,55.0,53.0,29.62,WSW,238,0.0,-999.0,93,0.20,,,0.67,Haskell-WGSend-v0.01,2013-01-30 14:50:00,
2013-01-30 08:55:00,55.0,53.0,29.61,SSW,208,0.0,-999.0,93,0.17,,,0.70,Haskell-WGSend-v0.01,2013-01-30 14:55:00,
2013-01-30 09:00:00,54.9,52.9,29.61,SW,225,3.0,-999.0,93,0.20,,,0.71,Haskell-WGSend-v0.01,2013-01-30 15:00:00,
2013-01-30 09:05:00,54.8,52.8,29.60,SW,236,3.0,-999.0,93,0.27,,,0.73,Haskell-WGSend-v0.01,2013-01-30 15:05:00,
2013-01-30 09:10:00,54.8,52.8,29.61,WSW,238,4.0,-999.0,93,0.14,,,0.74,Haskell-WGSend-v0.01,2013-01-30 15:10:00,
2013-01-30 09:15:00,54.7,52.7,29.62,SW,229,2.0,-999.0,93,0.14,,,0.75,Haskell-WGSend-v0.01,2013-01-30 15:15:00,
2013-01-30 09:20:00,54.7,52.7,29.62,SW,227,0.0,-999.0,93,0.24,,,0.77,Haskell-WGSend-v0.01,2013-01-30 15:20:00,
2013-01-30 09:25:00,54.7,52.7,29.62,SW,227,0.0,-999.0,93,0.10,,,0.77,Haskell-WGSend-v0.01,2013-01-30 15:25:00,
2013-01-30 09:30:00,54.7,52.7,29.62,SW,227,0.0,-999.0,93,0.05,,,0.77,Haskell-WGSend-v0.01,2013-01-30 15:30:00,
2013-01-30 09:35:00,54.6,52.9,29.63,SW,227,0.0,-999.0,94,0.05,,,0.78,Haskell-WGSend-v0.01,2013-01-30 15:35:00,
2013-01-30 09:40:00,54.7,53.0,29.64,SSW,199,0.0,-999.0,94,0.12,,,0.79,Haskell-WGSend-v0.01,2013-01-30 15:40:00,
2013-01-30 09:45:00,54.7,53.0,29.64,SSW,198,3.0,-999.0,94,0.08,,,0.80,Haskell-WGSend-v0.01,2013-01-30 15:45:00,
2013-01-30 09:50:00,54.7,52.7,29.63,SSW,192,5.0,-999.0,93,0.14,,,0.81,Haskell-WGSend-v0.01,2013-01-30 15:50:00,
2013-01-30 09:55:00,54.5,52.2,29.64,SSW,198,3.0,-999.0,92,0.08,,,0.81,Haskell-WGSend-v0.01,2013-01-30 15:55:00,
2013-01-30 10:00:00,54.3,52.0,29.64,SSW,207,6.0,-999.0,92,0.19,,,0.83,Haskell-WGSend-v0.01,2013-01-30 16:00:00,
2013-01-30 10:05:00,54.2,51.9,29.62,South,190,3.0,-999.0,92,0.10,,,0.83,Haskell-WGSend-v0.01,2013-01-30 16:05:00,
2013-01-30 10:10:00,54.0,51.7,29.62,SSW,194,1.0,-999.0,92,0.16,,,0.85,Haskell-WGSend-v0.01,2013-01-30 16:10:00,
2013-01-30 10:15:00,53.9,51.6,29.63,South,188,3.0,-999.0,92,0.13,,,0.86,Haskell-WGSend-v0.01,2013-01-30 16:15:00,
2013-01-30 10:20:00,53.7,51.4,29.62,SSW,202,3.0,-999.0,92,0.21,,,0.87,Haskell-WGSend-v0.01,2013-01-30 16:20:00,
2013-01-30 10:25:00,53.6,51.3,29.60,South,178,2.0,-999.0,92,0.28,,,0.89,Haskell-WGSend-v0.01,2013-01-30 16:25:00,
2013-01-30 10:30:00,53.4,50.8,29.62,South,170,2.0,-999.0,91,0.09,,,0.89,Haskell-WGSend-v0.01,2013-01-30 16:30:00,
2013-01-30 10:35:00,53.3,50.7,29.60,SSW,207,2.0,-999.0,91,0.08,,,0.90,Haskell-WGSend-v0.01,2013-01-30 16:35:00,
2013-01-30 10:40:00,53.0,49.8,29.61,SSW,192,3.0,-999.0,89,0.08,,,0.91,Haskell-WGSend-v0.01,2013-01-30 16:40:00,
2013-01-30 10:45:00,52.9,50.1,29.61,SSW,196,5.0,-999.0,90,0.08,,,0.91,Haskell-WGSend-v0.01,2013-01-30 16:45:00,
2013-01-30 10:50:00,52.9,50.1,29.62,SSW,198,5.0,-999.0,90,0.05,,,0.91,Haskell-WGSend-v0.01,2013-01-30 16:50:00,
2013-01-30 10:55:00,52.9,50.1,29.62,South,186,1.0,-999.0,90,0.04,,,0.91,Haskell-WGSend-v0.01,2013-01-30 16:55:00,
2013-01-30 11:00:00,52.8,50.0,29.62,South,189,0.0,-999.0,90,0.04,,,0.92,Haskell-WGSend-v0.01,2013-01-30 17:00:00,
2013-01-30 11:05:00,52.8,50.0,29.62,SSW,198,4.0,-999.0,90,0.11,,,0.93,Haskell-WGSend-v0.01,2013-01-30 17:05:00,
2013-01-30 11:10:00,52.6,49.8,29.60,SSW,196,2.0,-999.0,90,0.10,,,0.94,Haskell-WGSend-v0.01,2013-01-30 17:10:00,
2013-01-30 11:15:00,52.5,49.7,29.61,SSW,200,0.0,-999.0,90,0.13,,,0.95,Haskell-WGSend-v0.01,2013-01-30 17:15:00,
2013-01-30 11:20:00,52.4,49.6,29.60,SSW,200,0.0,-999.0,90,0.06,,,0.95,Haskell-WGSend-v0.01,2013-01-30 17:20:00,
2013-01-30 11:25:00,52.3,49.8,29.61,SSW,200,0.0,-999.0,91,0.05,,,0.96,Haskell-WGSend-v0.01,2013-01-30 17:25:00,
2013-01-30 11:30:00,52.3,49.8,29.62,SSW,200,5.0,-999.0,91,0.14,,,0.97,Haskell-WGSend-v0.01,2013-01-30 17:30:00,
2013-01-30 11:35:00,52.3,50.0,29.61,South,175,0.0,-999.0,92,0.07,,,0.98,Haskell-WGSend-v0.01,2013-01-30 17:35:00,
2013-01-30 11:40:00,52.3,50.0,29.61,South,171,6.0,-999.0,92,0.18,,,0.99,Haskell-WGSend-v0.01,2013-01-30 17:40:00,
2013-01-30 11:45:00,52.3,50.0,29.62,SSE,166,0.0,-999.0,92,0.07,,,0.99,Haskell-WGSend-v0.01,2013-01-30 17:45:00,
2013-01-30 11:50:00,52.3,50.0,29.59,SSE,152,0.0,-999.0,92,0.06,,,1.00,Haskell-WGSend-v0.01,2013-01-30 17:50:00,
2013-01-30 12:00:00,52.3,50.0,29.59,SSE,150,0.0,-999.0,92,0.07,,,1.01,Haskell-WGSend-v0.01,2013-01-30 18:00:00,
2013-01-30 12:05:00,52.3,50.0,29.59,SSE,153,0.0,-999.0,92,0.05,,,1.01,Haskell-WGSend-v0.01,2013-01-30 18:05:00,
2013-01-30 12:10:00,52.3,50.0,29.60,SSE,167,5.0,-999.0,92,0.04,,,1.02,Haskell-WGSend-v0.01,2013-01-30 18:10:00,
2013-01-30 12:15:00,52.3,50.0,29.59,SSE,167,0.0,-999.0,92,0.04,,,1.02,Haskell-WGSend-v0.01,2013-01-30 18:15:00,
2013-01-30 12:20:00,52.3,50.0,29.59,SSE,167,0.0,-999.0,92,0.05,,,1.03,Haskell-WGSend-v0.01,2013-01-30 18:20:00,
2013-01-30 12:25:00,52.3,50.0,29.59,SSE,167,0.0,-999.0,92,0.05,,,1.03,Haskell-WGSend-v0.01,2013-01-30 18:25:00,
2013-01-30 12:30:00,52.4,50.1,29.59,SSW,202,0.0,-999.0,92,0.05,,,1.03,Haskell-WGSend-v0.01,2013-01-30 18:30:00,
2013-01-30 12:35:00,52.4,50.1,29.58,South,190,2.0,-999.0,92,0.00,,,1.03,Haskell-WGSend-v0.01,2013-01-30 18:35:00,
2013-01-30 12:40:00,52.5,50.2,29.60,SSW,200,6.0,-999.0,92,0.00,,,1.03,Haskell-WGSend-v0.01,2013-01-30 18:40:00,
2013-01-30 12:45:00,52.7,50.4,29.60,SSW,205,3.0,-999.0,92,0.00,,,1.03,Haskell-WGSend-v0.01,2013-01-30 18:45:00,
2013-01-30 12:50:00,52.8,50.5,29.58,South,184,0.0,-999.0,92,0.00,,,1.04,Haskell-WGSend-v0.01,2013-01-30 18:50:00,
2013-01-30 12:55:00,52.9,50.6,29.58,SSE,155,0.0,-999.0,92,0.00,,,1.04,Haskell-WGSend-v0.01,2013-01-30 18:55:00,
2013-01-30 13:00:00,53.0,51.0,29.57,South,180,4.0,-999.0,93,0.00,,,1.04,Haskell-WGSend-v0.01,2013-01-30 19:00:00,
2013-01-30 13:05:00,53.1,51.1,29.57,South,182,0.0,-999.0,93,0.00,,,1.04,Haskell-WGSend-v0.01,2013-01-30 19:05:00,
2013-01-30 13:10:00,53.2,51.2,29.57,SSW,192,2.0,-999.0,93,0.00,,,1.04,Haskell-WGSend-v0.01,2013-01-30 19:10:00,
2013-01-30 13:15:00,53.3,51.3,29.58,SSW,204,10.0,-999.0,93,0.00,,,1.04,Haskell-WGSend-v0.01,2013-01-30 19:15:00,
2013-01-30 13:20:00,53.3,51.0,29.59,SSW,200,7.0,-999.0,92,0.00,,,1.04,Haskell-WGSend-v0.01,2013-01-30 19:20:00,
2013-01-30 13:30:00,53.3,51.0,29.58,SSW,192,7.0,-999.0,92,0.00,,,1.04,Haskell-WGSend-v0.01,2013-01-30 19:30:00,
2013-01-30 13:35:00,53.3,51.0,29.57,SW,225,0.0,-999.0,92,0.00,,,1.04,Haskell-WGSend-v0.01,2013-01-30 19:35:00,
2013-01-30 13:40:00,53.2,50.9,29.58,South,188,3.0,-999.0,92,0.00,,,1.04,Haskell-WGSend-v0.01,2013-01-30 19:40:00,
2013-01-30 13:45:00,53.2,50.9,29.57,South,189,3.0,-999.0,92,0.00,,,1.04,Haskell-WGSend-v0.01,2013-01-30 19:45:00,
2013-01-30 13:50:00,53.1,50.8,29.57,South,189,2.0,-999.0,92,0.00,,,1.04,Haskell-WGSend-v0.01,2013-01-30 19:50:00,
2013-01-30 13:55:00,53.1,50.8,29.57,SSW,207,4.0,-999.0,92,0.00,,,1.04,Haskell-WGSend-v0.01,2013-01-30 19:55:00,
2013-01-30 14:00:00,53.0,50.4,29.57,SSW,211,5.0,-999.0,91,0.00,,,1.04,Haskell-WGSend-v0.01,2013-01-30 20:00:00,
2013-01-30 14:05:00,52.9,50.3,29.59,SSW,197,7.0,-999.0,91,0.00,,,1.04,Haskell-WGSend-v0.01,2013-01-30 20:05:00,
2013-01-30 14:10:00,52.8,50.2,29.59,South,186,3.0,-999.0,91,0.00,,,1.04,Haskell-WGSend-v0.01,2013-01-30 20:10:00,
2013-01-30 14:15:00,52.8,50.5,29.58,South,184,4.0,-999.0,92,0.00,,,1.04,Haskell-WGSend-v0.01,2013-01-30 20:15:00,
2013-01-30 14:20:00,52.8,50.5,29.58,SSW,198,5.0,-999.0,92,0.00,,,1.04,Haskell-WGSend-v0.01,2013-01-30 20:20:00,
2013-01-30 14:25:00,52.9,50.6,29.58,South,175,5.0,-999.0,92,0.00,,,1.04,Haskell-WGSend-v0.01,2013-01-30 20:25:00,
2013-01-30 14:30:00,52.9,50.6,29.57,South,181,0.0,-999.0,92,0.00,,,1.04,Haskell-WGSend-v0.01,2013-01-30 20:30:00,
2013-01-30 14:35:00,53.0,50.7,29.57,SSW,205,1.0,-999.0,92,0.00,,,1.04,Haskell-WGSend-v0.01,2013-01-30 20:35:00,
2013-01-30 14:40:00,53.0,50.4,29.58,SW,222,3.0,-999.0,91,0.00,,,1.04,Haskell-WGSend-v0.01,2013-01-30 20:40:00,
2013-01-30 14:45:00,53.0,50.4,29.58,South,188,0.0,-999.0,91,0.00,,,1.04,Haskell-WGSend-v0.01,2013-01-30 20:45:00,
2013-01-30 14:50:00,52.9,50.3,29.57,South,188,1.0,-999.0,91,0.00,,,1.04,Haskell-WGSend-v0.01,2013-01-30 20:50:00,
2013-01-30 14:55:00,52.9,50.3,29.57,SSW,209,2.0,-999.0,91,0.00,,,1.04,Haskell-WGSend-v0.01,2013-01-30 20:55:00,
2013-01-30 15:00:00,52.9,50.3,29.57,South,180,0.0,-999.0,91,0.00,,,1.04,Haskell-WGSend-v0.01,2013-01-30 21:00:00,
2013-01-30 15:05:00,52.8,50.2,29.56,SSW,193,2.0,-999.0,91,0.00,,,1.04,Haskell-WGSend-v0.01,2013-01-30 21:05:00,
2013-01-30 15:10:00,52.8,50.2,29.57,South,191,0.0,-999.0,91,0.00,,,1.04,Haskell-WGSend-v0.01,2013-01-30 21:10:00,
2013-01-30 15:15:00,52.7,50.2,29.55,SSE,165,9.0,-999.0,91,0.00,,,1.04,Haskell-WGSend-v0.01,2013-01-30 21:15:00,
2013-01-30 15:20:00,52.8,50.2,29.55,SSW,196,2.0,-999.0,91,0.00,,,1.04,Haskell-WGSend-v0.01,2013-01-30 21:20:00,
2013-01-30 15:25:00,52.8,50.2,29.56,SSW,196,2.0,-999.0,91,0.00,,,1.04,Haskell-WGSend-v0.01,2013-01-30 21:25:00,
2013-01-30 15:30:00,52.9,50.3,29.57,SSW,200,6.0,-999.0,91,0.00,,,1.04,Haskell-WGSend-v0.01,2013-01-30 21:30:00,
2013-01-30 15:35:00,52.9,50.3,29.57,SSW,202,8.0,-999.0,91,0.00,,,1.04,Haskell-WGSend-v0.01,2013-01-30 21:35:00,
2013-01-30 15:45:00,53.0,50.1,29.57,SSW,205,2.0,-999.0,90,0.00,,,1.04,Haskell-WGSend-v0.01,2013-01-30 21:45:00,
2013-01-30 15:50:00,53.1,50.2,29.58,West,260,5.0,-999.0,90,0.00,,,1.04,Haskell-WGSend-v0.01,2013-01-30 21:50:00,
2013-01-30 15:55:00,53.1,50.2,29.57,SW,227,2.0,-999.0,90,0.00,,,1.04,Haskell-WGSend-v0.01,2013-01-30 21:55:00,
2013-01-30 16:00:00,53.1,50.2,29.56,SSW,196,2.0,-999.0,90,0.00,,,1.04,Haskell-WGSend-v0.01,2013-01-30 22:00:00,
2013-01-30 16:05:00,53.1,50.2,29.57,SSW,210,3.0,-999.0,90,0.00,,,1.04,Haskell-WGSend-v0.01,2013-01-30 22:05:00,
2013-01-30 16:10:00,53.0,49.8,29.58,SSW,200,4.0,-999.0,89,0.00,,,1.04,Haskell-WGSend-v0.01,2013-01-30 22:10:00,
2013-01-30 16:15:00,52.9,48.8,29.59,West,261,3.0,-999.0,86,0.00,,,1.04,Haskell-WGSend-v0.01,2013-01-30 22:15:00,
2013-01-30 16:20:00,52.9,48.2,29.59,SW,228,6.0,-999.0,84,0.00,,,1.04,Haskell-WGSend-v0.01,2013-01-30 22:20:00,
2013-01-30 16:25:00,52.8,47.8,29.59,SW,234,3.0,-999.0,83,0.00,,,1.04,Haskell-WGSend-v0.01,2013-01-30 22:25:00,
2013-01-30 16:30:00,52.7,47.4,29.59,WSW,249,7.0,-999.0,82,0.00,,,1.05,Haskell-WGSend-v0.01,2013-01-30 22:30:00,
2013-01-30 16:35:00,52.3,47.3,29.59,WSW,248,10.0,-999.0,83,0.13,,,1.06,Haskell-WGSend-v0.01,2013-01-30 22:35:00,
2013-01-30 16:40:00,51.7,46.4,29.59,SW,230,5.0,-999.0,82,0.09,,,1.06,Haskell-WGSend-v0.01,2013-01-30 22:40:00,
2013-01-30 16:45:00,51.2,45.6,29.59,WSW,254,6.0,-999.0,81,0.05,,,1.06,Haskell-WGSend-v0.01,2013-01-30 22:45:00,
2013-01-30 16:50:00,50.8,44.5,29.60,WSW,244,8.0,-999.0,79,0.04,,,1.06,Haskell-WGSend-v0.01,2013-01-30 22:50:00,
2013-01-30 16:55:00,50.6,44.0,29.60,WSW,252,5.0,-999.0,78,0.00,,,1.06,Haskell-WGSend-v0.01,2013-01-30 22:55:00,
2013-01-30 17:00:00,50.5,43.6,29.59,WSW,241,11.0,-999.0,77,0.00,,,1.06,Haskell-WGSend-v0.01,2013-01-30 23:00:00,
2013-01-30 17:05:00,50.5,43.6,29.59,West,275,16.0,-999.0,77,0.00,,,1.06,Haskell-WGSend-v0.01,2013-01-30 23:05:00,
2013-01-30 17:10:00,50.5,43.9,29.60,SW,235,10.0,-999.0,78,0.00,,,1.06,Haskell-WGSend-v0.01,2013-01-30 23:10:00,
2013-01-30 17:15:00,50.4,43.8,29.60,West,263,12.0,-999.0,78,0.00,,,1.06,Haskell-WGSend-v0.01,2013-01-30 23:15:00,
2013-01-30 17:20:00,50.4,43.5,29.59,WSW,253,8.0,-999.0,77,0.00,,,1.06,Haskell-WGSend-v0.01,2013-01-30 23:20:00,
2013-01-30 17:25:00,50.3,43.4,29.61,SW,225,20.0,-999.0,77,0.00,,,1.06,Haskell-WGSend-v0.01,2013-01-30 23:25:00,
2013-01-30 17:30:00,50.3,43.4,29.63,WNW,292,16.0,-999.0,77,0.00,,,1.06,Haskell-WGSend-v0.01,2013-01-30 23:30:00,
2013-01-30 17:35:00,49.3,42.7,29.64,West,273,23.0,-999.0,78,0.00,,,1.06,Haskell-WGSend-v0.01,2013-01-30 23:35:00,
2013-01-30 17:40:00,48.3,42.8,29.64,WNW,294,13.0,-999.0,81,0.00,,,1.07,Haskell-WGSend-v0.01,2013-01-30 23:40:00,
2013-01-30 17:45:00,47.4,42.5,29.64,West,277,9.0,-999.0,83,0.00,,,1.07,Haskell-WGSend-v0.01,2013-01-30 23:45:00,
2013-01-30 17:50:00,46.9,42.3,29.65,WNW,291,6.0,-999.0,84,0.00,,,1.07,Haskell-WGSend-v0.01,2013-01-30 23:50:00,
2013-01-30 17:55:00,46.4,42.1,29.65,WSW,250,6.0,-999.0,85,0.00,,,1.07,Haskell-WGSend-v0.01,2013-01-30 23:55:00,
2013-01-30 18:00:00,46.1,42.2,29.65,West,259,3.0,-999.0,86,0.00,,,1.07,Haskell-WGSend-v0.01,2013-01-31 00:00:00,
2013-01-30 18:05:00,46.0,42.1,29.65,WSW,240,7.0,-999.0,86,0.00,,,1.07,Haskell-WGSend-v0.01,2013-01-31 00:05:00,
2013-01-30 18:10:00,46.0,42.1,29.66,WSW,253,11.0,-999.0,86,0.00,,,1.07,Haskell-WGSend-v0.01,2013-01-31 00:10:00,
2013-01-30 18:15:00,46.0,42.1,29.67,WSW,240,2.0,-999.0,86,0.00,,,1.07,Haskell-WGSend-v0.01,2013-01-31 00:15:00,
2013-01-30 18:20:00,46.0,42.1,29.68,WSW,243,5.0,-999.0,86,0.00,,,1.07,Haskell-WGSend-v0.01,2013-01-31 00:20:00,
2013-01-30 18:25:00,46.1,42.2,29.68,WSW,242,7.0,-999.0,86,0.00,,,1.07,Haskell-WGSend-v0.01,2013-01-31 00:25:00,
2013-01-30 18:30:00,46.2,42.3,29.69,WSW,257,11.0,-999.0,86,0.00,,,1.07,Haskell-WGSend-v0.01,2013-01-31 00:30:00,
2013-01-30 18:35:00,45.9,41.3,29.70,West,281,16.0,-999.0,84,0.00,,,1.08,Haskell-WGSend-v0.01,2013-01-31 00:35:00,
2013-01-30 18:40:00,45.1,40.6,29.71,WNW,293,9.0,-999.0,84,0.09,,,1.09,Haskell-WGSend-v0.01,2013-01-31 00:40:00,
2013-01-30 18:45:00,44.2,39.7,29.73,NW,322,9.0,-999.0,84,0.07,,,1.09,Haskell-WGSend-v0.01,2013-01-31 00:45:00,
2013-01-30 18:50:00,43.4,38.3,29.73,WSW,258,14.0,-999.0,82,0.05,,,1.09,Haskell-WGSend-v0.01,2013-01-31 00:50:00,
2013-01-30 18:55:00,42.9,37.5,29.74,WNW,302,15.0,-999.0,81,0.00,,,1.09,Haskell-WGSend-v0.01,2013-01-31 00:55:00,
2013-01-30 19:05:00,42.3,37.5,29.74,West,259,8.0,-999.0,83,0.00,,,1.09,Haskell-WGSend-v0.01,2013-01-31 01:05:00,
2013-01-30 19:10:00,41.9,37.1,29.75,West,265,7.0,-999.0,83,0.00,,,1.09,Haskell-WGSend-v0.01,2013-01-31 01:10:00,
2013-01-30 19:15:00,41.7,36.6,29.75,West,267,5.0,-999.0,82,0.00,,,1.09,Haskell-WGSend-v0.01,2013-01-31 01:15:00,
2013-01-30 19:20:00,41.6,36.5,29.75,WSW,257,14.0,-999.0,82,0.00,,,1.09,Haskell-WGSend-v0.01,2013-01-31 01:20:00,
2013-01-30 19:25:00,41.5,36.1,29.75,West,275,11.0,-999.0,81,0.00,,,1.09,Haskell-WGSend-v0.01,2013-01-31 01:25:00,
2013-01-30 19:30:00,41.5,36.1,29.76,NNW,344,11.0,-999.0,81,0.00,,,1.09,Haskell-WGSend-v0.01,2013-01-31 01:30:00,
2013-01-30 19:35:00,41.5,35.8,29.76,NNW,338,9.0,-999.0,80,0.00,,,1.09,Haskell-WGSend-v0.01,2013-01-31 01:35:00,
2013-01-30 19:40:00,41.4,35.7,29.76,NW,317,6.0,-999.0,80,0.00,,,1.09,Haskell-WGSend-v0.01,2013-01-31 01:40:00,
2013-01-30 19:45:00,41.4,35.7,29.76,WSW,252,4.0,-999.0,80,0.00,,,1.09,Haskell-WGSend-v0.01,2013-01-31 01:45:00,
2013-01-30 19:50:00,41.3,35.6,29.77,West,265,3.0,-999.0,80,0.00,,,1.09,Haskell-WGSend-v0.01,2013-01-31 01:50:00,
2013-01-30 19:55:00,41.1,35.1,29.77,WSW,248,10.0,-999.0,79,0.00,,,1.09,Haskell-WGSend-v0.01,2013-01-31 01:55:00,
2013-01-30 20:05:00,41.0,35.0,29.78,West,279,11.0,-999.0,79,0.00,,,1.09,Haskell-WGSend-v0.01,2013-01-31 02:05:00,
2013-01-30 20:10:00,41.0,34.7,29.78,West,264,7.0,-999.0,78,0.00,,,1.09,Haskell-WGSend-v0.01,2013-01-31 02:10:00,
2013-01-30 20:15:00,41.1,34.8,29.79,WSW,242,7.0,-999.0,78,0.00,,,1.09,Haskell-WGSend-v0.01,2013-01-31 02:15:00,
2013-01-30 20:20:00,41.0,34.4,29.79,North,360,8.0,-999.0,77,0.00,,,1.09,Haskell-WGSend-v0.01,2013-01-31 02:20:00,
2013-01-30 20:25:00,41.1,34.1,29.79,WSW,250,22.0,-999.0,76,0.00,,,1.09,Haskell-WGSend-v0.01,2013-01-31 02:25:00,
2013-01-30 20:30:00,41.1,33.1,29.80,WSW,258,15.0,-999.0,73,0.00,,,1.09,Haskell-WGSend-v0.01,2013-01-31 02:30:00,
2013-01-30 20:35:00,41.1,32.4,29.80,WNW,285,8.0,-999.0,71,0.00,,,1.09,Haskell-WGSend-v0.01,2013-01-31 02:35:00,
2013-01-30 20:40:00,41.0,31.3,29.81,WSW,249,22.0,-999.0,68,0.00,,,1.09,Haskell-WGSend-v0.01,2013-01-31 02:40:00,
2013-01-30 20:55:00,40.5,30.4,29.82,West,261,18.0,-999.0,67,0.00,,,1.09,Haskell-WGSend-v0.01,2013-01-31 02:55:00,
2013-01-30 21:00:00,40.1,30.4,29.83,West,267,11.0,-999.0,68,0.00,,,1.09,Haskell-WGSend-v0.01,2013-01-31 03:00:00,
2013-01-30 21:05:00,39.9,30.2,29.84,West,264,8.0,-999.0,68,0.00,,,1.09,Haskell-WGSend-v0.01,2013-01-31 03:05:00,
2013-01-30 21:15:00,39.7,30.0,29.85,WSW,252,10.0,-999.0,68,0.00,,,1.09,Haskell-WGSend-v0.01,2013-01-31 03:15:00,
2013-01-30 21:20:00,39.6,29.6,29.86,NW,311,9.0,-999.0,67,0.00,,,1.09,Haskell-WGSend-v0.01,2013-01-31 03:20:00,
2013-01-30 21:25:00,39.4,29.0,29.86,WNW,285,5.0,-999.0,66,0.00,,,1.09,Haskell-WGSend-v0.01,2013-01-31 03:25:00,
2013-01-30 21:30:00,39.2,28.8,29.87,WNW,296,8.0,-999.0,66,0.00,,,1.09,Haskell-WGSend-v0.01,2013-01-31 03:30:00,
2013-01-30 21:35:00,39.1,28.7,29.88,West,271,7.0,-999.0,66,0.00,,,1.09,Haskell-WGSend-v0.01,2013-01-31 03:35:00,
2013-01-30 21:40:00,38.9,28.5,29.88,West,274,6.0,-999.0,66,0.00,,,1.09,Haskell-WGSend-v0.01,2013-01-31 03:40:00,
2013-01-30 21:45:00,38.8,28.4,29.89,West,268,11.0,-999.0,66,0.00,,,1.09,Haskell-WGSend-v0.01,2013-01-31 03:45:00,
2013-01-30 21:50:00,38.7,28.7,29.89,West,276,15.0,-999.0,67,0.00,,,1.09,Haskell-WGSend-v0.01,2013-01-31 03:50:00,
2013-01-30 21:55:00,38.6,28.6,29.90,West,265,8.0,-999.0,67,0.00,,,1.09,Haskell-WGSend-v0.01,2013-01-31 03:55:00,
2013-01-30 22:00:00,38.5,28.9,29.90,West,277,13.0,-999.0,68,0.00,,,1.09,Haskell-WGSend-v0.01,2013-01-31 04:00:00,
2013-01-30 22:05:00,38.4,28.8,29.90,WSW,243,12.0,-999.0,68,0.00,,,1.09,Haskell-WGSend-v0.01,2013-01-31 04:05:00,
2013-01-30 22:10:00,38.3,28.3,29.90,West,265,12.0,-999.0,67,0.00,,,1.09,Haskell-WGSend-v0.01,2013-01-31 04:10:00,
2013-01-30 22:15:00,38.3,28.7,29.91,West,264,11.0,-999.0,68,0.00,,,1.09,Haskell-WGSend-v0.01,2013-01-31 04:15:00,
2013-01-30 22:20:00,38.3,28.7,29.92,WSW,257,6.0,-999.0,68,0.00,,,1.09,Haskell-WGSend-v0.01,2013-01-31 04:20:00,
2013-01-30 22:25:00,38.3,28.3,29.92,WNW,285,5.0,-999.0,67,0.00,,,1.09,Haskell-WGSend-v0.01,2013-01-31 04:25:00,
2013-01-30 22:30:00,38.3,28.7,29.92,West,266,11.0,-999.0,68,0.00,,,1.09,Haskell-WGSend-v0.01,2013-01-31 04:30:00,
2013-01-30 22:35:00,38.2,28.6,29.92,West,281,9.0,-999.0,68,0.00,,,1.09,Haskell-WGSend-v0.01,2013-01-31 04:35:00,
2013-01-30 22:40:00,38.2,28.2,29.93,West,269,8.0,-999.0,67,0.00,,,1.09,Haskell-WGSend-v0.01,2013-01-31 04:40:00,
2013-01-30 22:45:00,38.1,27.8,29.94,West,275,13.0,-999.0,66,0.00,,,1.09,Haskell-WGSend-v0.01,2013-01-31 04:45:00,
2013-01-30 22:50:00,38.0,26.2,29.94,West,263,18.0,-999.0,62,0.00,,,1.09,Haskell-WGSend-v0.01,2013-01-31 04:50:00,
2013-01-30 22:55:00,37.9,25.7,29.94,West,273,9.0,-999.0,61,0.00,,,1.09,Haskell-WGSend-v0.01,2013-01-31 04:55:00,
2013-01-30 23:00:00,37.8,25.6,29.95,NNW,327,7.0,-999.0,61,0.00,,,1.09,Haskell-WGSend-v0.01,2013-01-31 05:00:00,
2013-01-30 23:10:00,37.7,26.3,29.95,West,263,8.0,-999.0,63,0.00,,,1.09,Haskell-WGSend-v0.01,2013-01-31 05:10:00,
2013-01-30 23:15:00,37.6,26.6,29.95,WNW,290,4.0,-999.0,64,0.00,,,1.09,Haskell-WGSend-v0.01,2013-01-31 05:15:00,
2013-01-30 23:20:00,37.5,26.5,29.95,WNW,288,2.0,-999.0,64,0.00,,,1.09,Haskell-WGSend-v0.01,2013-01-31 05:20:00,
2013-01-30 23:25:00,37.5,26.8,29.96,West,267,8.0,-999.0,65,0.00,,,1.09,Haskell-WGSend-v0.01,2013-01-31 05:25:00,
2013-01-30 23:30:00,37.4,26.7,29.96,West,262,8.0,-999.0,65,0.00,,,1.09,Haskell-WGSend-v0.01,2013-01-31 05:30:00,
2013-01-30 23:35:00,37.4,27.1,29.97,West,275,7.0,-999.0,66,0.00,,,1.09,Haskell-WGSend-v0.01,2013-01-31 05:35:00,
2013-01-30 23:40:00,37.3,27.0,29.97,WSW,253,8.0,-999.0,66,0.00,,,1.09,Haskell-WGSend-v0.01,2013-01-31 05:40:00,
2013-01-30 23:50:00,37.3,27.0,29.96,WNW,282,1.0,-999.0,66,0.00,,,1.09,Haskell-WGSend-v0.01,2013-01-31 05:50:00,
2013-01-30 23:55:00,37.3,27.4,29.97,NW,315,7.0,-999.0,67,0.00,,,1.09,Haskell-WGSend-v0.01,2013-01-31 05:55:00,